Time;durP1;ratioP1;P1;durP2;ratioP2;P2;SDS_P1;SDS_P2;PMS_P1;PMS_P2;Temp;Humidity;BMP_temperature;BMP_pressure;BME280_temperature;BME280_humidity;BME280_pressure;Samples;Min_cycle;Max_cycle;Signal;HPM_P1;HPM_P2
2022/10/28 00:01:26;;;;;;;21.70;11.48;;;;;;;;;;5036099;28;20049;-78
2022/10/28 00:03:53;;;;;;;16.85;11.10;;;;;;;;;;5035664;28;20447;-78
2022/10/28 00:06:21;;;;;;;20.25;11.75;;;;;;;;;;5035757;28;20499;-77
2022/10/28 00:08:47;;;;;;;18.60;11.52;;;;;;;;;;5033666;28;20120;-78
2022/10/28 00:11:15;;;;;;;20.80;11.88;;;;;;;;;;5032908;28;20057;-78
2022/10/28 00:13:42;;;;;;;18.02;11.95;;;;;;;;;;5024289;28;20374;-78
2022/10/28 00:16:12;;;;;;;19.35;11.23;;;;;;;;;;5015503;28;20405;-77
2022/10/28 00:18:38;;;;;;;22.95;12.30;;;;;;;;;;5015561;28;20057;-78
2022/10/28 00:21:11;;;;;;;21.20;12.93;;;;;;;;;;5015668;28;20206;-78
2022/10/28 00:23:37;;;;;;;17.10;11.95;;;;;;;;;;5026322;28;20148;-78
2022/10/28 00:26:17;;;;;;;21.80;11.35;;;;;;;;;;5035401;28;20068;-77
2022/10/28 00:28:50;;;;;;;17.45;11.50;;;;;;;;;;5035238;28;20106;-78
2022/10/28 00:31:17;;;;;;;17.23;11.63;;;;;;;;;;5023353;28;20065;-78
2022/10/28 00:33:43;;;;;;;21.73;12.38;;;;;;;;;;5028325;28;20048;-78
2022/10/28 00:36:15;;;;;;;15.27;10.63;;;;;;;;;;5035819;28;20049;-77
2022/10/28 00:38:42;;;;;;;21.70;12.30;;;;;;;;;;5035242;28;20477;-77
2022/10/28 00:41:09;;;;;;;17.50;10.73;;;;;;;;;;5035456;28;20091;-77
2022/10/28 00:43:46;;;;;;;20.42;11.82;;;;;;;;;;5025536;28;20071;-77
2022/10/28 00:46:32;;;;;;;15.93;10.48;;;;;;;;;;5015221;28;20173;-77
2022/10/28 00:49:04;;;;;;;18.08;11.10;;;;;;;;;;5029350;28;20056;-77
2022/10/28 00:51:31;;;;;;;20.02;12.15;;;;;;;;;;5034852;28;20124;-77
2022/10/28 00:53:57;;;;;;;20.75;12.68;;;;;;;;;;5033414;28;20512;-77
2022/10/28 00:56:25;;;;;;;19.60;11.85;;;;;;;;;;5035213;28;20045;-78
2022/10/28 00:58:51;;;;;;;21.77;12.98;;;;;;;;;;5034738;28;20052;-78
2022/10/28 01:01:17;;;;;;;20.80;12.60;;;;;;;;;;5035039;28;20495;-78
2022/10/28 01:03:43;;;;;;;19.50;13.20;;;;;;;;;;5018412;28;20061;-78
2022/10/28 01:06:09;;;;;;;18.25;12.32;;;;;;;;;;5034403;28;20095;-78
2022/10/28 01:08:35;;;;;;;18.98;13.00;;;;;;;;;;5034297;28;20128;-77
2022/10/28 01:11:01;;;;;;;21.15;12.40;;;;;;;;;;5023572;28;20057;-78
2022/10/28 01:13:36;;;;;;;18.92;12.23;;;;;;;;;;5032718;28;20044;-77
2022/10/28 01:16:07;;;;;;;15.97;11.50;;;;;;;;;;5032871;28;20115;-77
2022/10/28 01:18:48;;;;;;;23.17;13.73;;;;;;;;;;5034555;28;20046;-77
2022/10/28 01:21:20;;;;;;;17.70;12.63;;;;;;;;;;5034646;28;20087;-78
2022/10/28 01:24:04;;;;;;;19.10;12.27;;;;;;;;;;5034597;28;20052;-77
2022/10/28 01:26:30;;;;;;;20.90;12.27;;;;;;;;;;5034364;28;20052;-78
2022/10/28 01:29:05;;;;;;;21.52;12.45;;;;;;;;;;5034317;28;20041;-77
2022/10/28 01:31:31;;;;;;;17.33;12.00;;;;;;;;;;5034909;28;20497;-78
2022/10/28 01:34:14;;;;;;;18.42;12.10;;;;;;;;;;5020622;28;20073;-77
2022/10/28 01:36:47;;;;;;;18.30;12.35;;;;;;;;;;5033557;28;20049;-78
2022/10/28 01:39:24;;;;;;;16.80;12.00;;;;;;;;;;5034323;28;20060;-78
2022/10/28 01:42:05;;;;;;;20.05;12.13;;;;;;;;;;5033924;28;20045;-78
2022/10/28 01:44:38;;;;;;;20.45;13.13;;;;;;;;;;5032383;28;20408;-78
2022/10/28 01:47:09;;;;;;;21.42;13.05;;;;;;;;;;5033853;28;20107;-78
2022/10/28 01:49:41;;;;;;;22.05;12.30;;;;;;;;;;5033916;28;20055;-77
2022/10/28 01:52:11;;;;;;;17.33;13.05;;;;;;;;;;5032271;28;20480;-76
2022/10/28 01:54:38;;;;;;;19.73;13.05;;;;;;;;;;5013875;28;20030;-77
2022/10/28 01:57:05;;;;;;;19.15;13.13;;;;;;;;;;5013970;28;20042;-77
2022/10/28 01:59:32;;;;;;;20.15;12.43;;;;;;;;;;5032741;28;20041;-77
2022/10/28 02:01:58;;;;;;;22.83;12.48;;;;;;;;;;5024010;28;20180;-77
2022/10/28 02:04:24;;;;;;;24.63;13.00;;;;;;;;;;5018695;28;20124;-77
2022/10/28 02:06:52;;;;;;;17.85;12.90;;;;;;;;;;5033699;28;20124;-77
2022/10/28 02:09:21;;;;;;;21.63;12.93;;;;;;;;;;5033014;28;20057;-77
2022/10/28 02:11:53;;;;;;;19.15;12.13;;;;;;;;;;5033678;28;20171;-77
2022/10/28 02:14:25;;;;;;;24.23;13.30;;;;;;;;;;5033724;28;20052;-78
2022/10/28 02:17:01;;;;;;;20.40;13.20;;;;;;;;;;5032885;28;20044;-77
2022/10/28 02:19:30;;;;;;;20.27;13.18;;;;;;;;;;5023066;28;20045;-77
2022/10/28 02:22:20;;;;;;;23.05;12.80;;;;;;;;;;5032161;28;20053;-78
2022/10/28 02:24:46;;;;;;;21.30;13.05;;;;;;;;;;5010431;28;20521;-77
2022/10/28 02:27:18;;;;;;;22.95;12.85;;;;;;;;;;5013487;28;20046;-77
2022/10/28 02:29:47;;;;;;;22.23;13.57;;;;;;;;;;5033039;28;20049;-77
2022/10/28 02:32:16;;;;;;;23.70;14.15;;;;;;;;;;5028747;28;20045;-78
2022/10/28 02:34:44;;;;;;;22.27;14.15;;;;;;;;;;5012194;28;20497;-78
2022/10/28 02:37:12;;;;;;;23.88;14.27;;;;;;;;;;5013383;28;20042;-78
2022/10/28 02:39:44;;;;;;;21.80;13.18;;;;;;;;;;5013446;28;20049;-77
2022/10/28 02:42:10;;;;;;;23.23;13.55;;;;;;;;;;5015370;28;20053;-78
2022/10/28 02:44:39;;;;;;;20.45;12.80;;;;;;;;;;5033620;28;20392;-78
2022/10/28 02:47:09;;;;;;;28.40;14.88;;;;;;;;;;5029456;28;20049;-78
2022/10/28 02:49:37;;;;;;;22.67;15.00;;;;;;;;;;5020986;28;20045;-78
2022/10/28 02:52:04;;;;;;;22.95;14.43;;;;;;;;;;5032945;28;20493;-78
2022/10/28 02:54:30;;;;;;;23.25;14.68;;;;;;;;;;5018333;28;20120;-78
2022/10/28 02:56:59;;;;;;;26.02;14.70;;;;;;;;;;5011609;28;20149;-77
2022/10/28 02:59:25;;;;;;;23.27;14.65;;;;;;;;;;5026522;28;20121;-78
2022/10/28 03:01:51;;;;;;;24.27;14.45;;;;;;;;;;5032859;28;20077;-78
2022/10/28 03:04:17;;;;;;;20.30;13.55;;;;;;;;;;5013880;28;20108;-78
2022/10/28 03:06:43;;;;;;;22.92;13.63;;;;;;;;;;5013432;28;20088;-78
2022/10/28 03:09:09;;;;;;;24.20;14.90;;;;;;;;;;5029854;28;20124;-77
2022/10/28 03:11:35;;;;;;;22.42;14.52;;;;;;;;;;5033787;28;20049;-78
2022/10/28 03:14:01;;;;;;;25.05;14.65;;;;;;;;;;5032305;28;20045;-78
2022/10/28 03:16:27;;;;;;;25.65;14.23;;;;;;;;;;5036047;28;20041;-78
2022/10/28 03:18:54;;;;;;;25.83;14.73;;;;;;;;;;5035108;28;20052;-78
2022/10/28 03:21:20;;;;;;;23.00;14.85;;;;;;;;;;5036245;28;20507;-78
2022/10/28 03:23:46;;;;;;;22.52;14.15;;;;;;;;;;5036632;28;20050;-77
2022/10/28 03:26:12;;;;;;;24.73;14.93;;;;;;;;;;5036570;28;20042;-78
2022/10/28 03:28:38;;;;;;;21.27;14.68;;;;;;;;;;5030458;28;20042;-78
2022/10/28 03:31:04;;;;;;;21.48;14.25;;;;;;;;;;5023347;28;20050;-78
2022/10/28 03:33:30;;;;;;;23.05;15.32;;;;;;;;;;5034813;28;20045;-78
2022/10/28 03:35:56;;;;;;;24.83;14.93;;;;;;;;;;5036044;28;20064;-78
2022/10/28 03:38:22;;;;;;;22.38;14.68;;;;;;;;;;5036115;28;20041;-77
2022/10/28 03:40:49;;;;;;;25.13;15.52;;;;;;;;;;5033195;28;20125;-77
2022/10/28 03:43:15;;;;;;;25.65;15.65;;;;;;;;;;5035806;28;20041;-77
2022/10/28 03:45:41;;;;;;;25.88;14.88;;;;;;;;;;5017005;28;20496;-77
2022/10/28 03:48:07;;;;;;;25.52;14.60;;;;;;;;;;5017911;28;21093;-77
2022/10/28 03:50:33;;;;;;;21.75;14.57;;;;;;;;;;5033964;28;20052;-78
2022/10/28 03:52:59;;;;;;;23.65;14.35;;;;;;;;;;5029447;28;20056;-77
2022/10/28 03:55:26;;;;;;;21.73;14.15;;;;;;;;;;5015918;28;20077;-78
2022/10/28 03:57:52;;;;;;;19.27;13.52;;;;;;;;;;5019370;28;20081;-77
2022/10/28 04:00:18;;;;;;;20.90;13.15;;;;;;;;;;5036046;28;20144;-78
2022/10/28 04:02:51;;;;;;;24.83;15.32;;;;;;;;;;5035825;28;20056;-78
2022/10/28 04:05:17;;;;;;;23.33;15.15;;;;;;;;;;5035574;28;20052;-78
2022/10/28 04:07:43;;;;;;;23.50;14.25;;;;;;;;;;5035814;28;20096;-78
2022/10/28 04:10:10;;;;;;;31.98;14.10;;;;;;;;;;5035379;28;20104;-78
2022/10/28 04:12:36;;;;;;;24.45;13.75;;;;;;;;;;5018407;28;20538;-78
2022/10/28 04:15:02;;;;;;;23.88;14.38;;;;;;;;;;5036084;28;20041;-78
2022/10/28 04:17:28;;;;;;;24.05;13.85;;;;;;;;;;5035964;28;20041;-78
2022/10/28 04:19:54;;;;;;;20.83;13.45;;;;;;;;;;5035547;28;20499;-78
2022/10/28 04:22:20;;;;;;;23.92;14.65;;;;;;;;;;5035806;28;20120;-77
2022/10/28 04:24:46;;;;;;;23.33;15.93;;;;;;;;;;5035955;28;20048;-78
2022/10/28 04:27:12;;;;;;;31.02;15.50;;;;;;;;;;5034814;28;20114;-77
2022/10/28 04:29:38;;;;;;;25.42;14.93;;;;;;;;;;5035994;28;20095;-78
2022/10/28 04:32:04;;;;;;;22.15;14.32;;;;;;;;;;5035569;28;20529;-78
2022/10/28 04:34:30;;;;;;;24.58;14.95;;;;;;;;;;5036552;28;20046;-78
2022/10/28 04:36:56;;;;;;;25.27;14.60;;;;;;;;;;5034920;28;20045;-80
2022/10/28 04:39:22;;;;;;;27.20;15.55;;;;;;;;;;5035113;28;20056;-81
2022/10/28 04:41:48;;;;;;;22.48;15.70;;;;;;;;;;5035141;28;20041;-81
2022/10/28 04:44:14;;;;;;;26.33;16.00;;;;;;;;;;5034928;28;20049;-81
2022/10/28 04:46:40;;;;;;;26.17;15.95;;;;;;;;;;5035038;28;20068;-80
2022/10/28 04:49:06;;;;;;;26.27;15.30;;;;;;;;;;5034594;28;20501;-81
2022/10/28 04:51:32;;;;;;;24.77;16.40;;;;;;;;;;5035409;28;20045;-79
2022/10/28 04:53:58;;;;;;;24.90;16.17;;;;;;;;;;5037129;28;20130;-80
2022/10/28 04:56:24;;;;;;;30.80;17.45;;;;;;;;;;5040203;28;20048;-81
2022/10/28 04:58:50;;;;;;;26.65;15.73;;;;;;;;;;5040391;28;20084;-79
2022/10/28 05:01:16;;;;;;;28.60;17.90;;;;;;;;;;5038687;28;20045;-78
2022/10/28 05:03:42;;;;;;;23.90;15.95;;;;;;;;;;5039203;28;20041;-79
2022/10/28 05:06:08;;;;;;;26.35;16.08;;;;;;;;;;5036343;28;20042;-79
2022/10/28 05:08:34;;;;;;;29.13;16.38;;;;;;;;;;5033560;28;20053;-79
2022/10/28 05:11:00;;;;;;;26.88;17.08;;;;;;;;;;5034709;28;20452;-79
2022/10/28 05:13:26;;;;;;;27.60;16.73;;;;;;;;;;5034637;28;20527;-79
2022/10/28 05:15:52;;;;;;;31.92;17.05;;;;;;;;;;5034328;28;20103;-79
2022/10/28 05:18:18;;;;;;;30.17;17.42;;;;;;;;;;5033280;28;20084;-79
2022/10/28 05:20:44;;;;;;;24.52;16.70;;;;;;;;;;5034482;28;20099;-79
2022/10/28 05:23:11;;;;;;;28.95;17.50;;;;;;;;;;5034351;28;20180;-79
2022/10/28 05:25:37;;;;;;;32.92;17.70;;;;;;;;;;5034224;28;20499;-79
2022/10/28 05:28:03;;;;;;;27.35;17.80;;;;;;;;;;5033336;28;20110;-79
2022/10/28 05:30:29;;;;;;;29.92;18.27;;;;;;;;;;5034484;28;20408;-79
2022/10/28 05:32:59;;;;;;;29.85;18.05;;;;;;;;;;5034561;28;20033;-79
2022/10/28 05:35:25;;;;;;;27.80;17.75;;;;;;;;;;5038522;28;20053;-80
2022/10/28 05:37:51;;;;;;;29.35;17.02;;;;;;;;;;5034688;28;20112;-79
2022/10/28 05:40:17;;;;;;;28.92;18.00;;;;;;;;;;5033841;28;20042;-79
2022/10/28 05:42:43;;;;;;;28.48;17.83;;;;;;;;;;5034021;28;20392;-78
2022/10/28 05:45:10;;;;;;;30.77;17.35;;;;;;;;;;5033803;28;20050;-79
2022/10/28 05:47:36;;;;;;;30.08;18.40;;;;;;;;;;5032538;28;20099;-79
2022/10/28 05:50:02;;;;;;;26.00;17.27;;;;;;;;;;5033980;28;20041;-78
2022/10/28 05:52:28;;;;;;;32.97;18.20;;;;;;;;;;5034331;28;20045;-79
2022/10/28 05:54:54;;;;;;;32.25;18.70;;;;;;;;;;5033180;28;20120;-79
2022/10/28 05:57:20;;;;;;;29.15;17.40;;;;;;;;;;5033279;28;20472;-79
2022/10/28 05:59:46;;;;;;;27.95;18.30;;;;;;;;;;5033733;28;20103;-79
2022/10/28 06:02:15;;;;;;;30.42;17.88;;;;;;;;;;5033213;28;20049;-78
2022/10/28 06:04:41;;;;;;;33.45;17.95;;;;;;;;;;5026199;28;20121;-79
2022/10/28 06:07:07;;;;;;;27.75;17.50;;;;;;;;;;5032844;28;20046;-79
2022/10/28 06:09:34;;;;;;;30.25;17.45;;;;;;;;;;5033389;28;20049;-79
2022/10/28 06:12:00;;;;;;;33.00;18.80;;;;;;;;;;5032048;28;20053;-79
2022/10/28 06:14:26;;;;;;;31.38;17.73;;;;;;;;;;5033870;28;20128;-79
2022/10/28 06:16:52;;;;;;;30.90;18.05;;;;;;;;;;5033570;28;20133;-78
2022/10/28 06:19:18;;;;;;;28.63;17.00;;;;;;;;;;5034783;28;20124;-78
2022/10/28 06:21:44;;;;;;;29.25;17.42;;;;;;;;;;5018016;28;20498;-78
2022/10/28 06:24:10;;;;;;;32.45;17.50;;;;;;;;;;5015869;28;20490;-80
2022/10/28 06:26:36;;;;;;;28.42;17.02;;;;;;;;;;5029619;28;20045;-78
2022/10/28 06:29:02;;;;;;;33.28;18.27;;;;;;;;;;5033311;28;20042;-78
2022/10/28 06:31:28;;;;;;;33.17;18.58;;;;;;;;;;5033159;28;20052;-78
2022/10/28 06:33:54;;;;;;;34.08;17.83;;;;;;;;;;5022143;28;20042;-78
2022/10/28 06:36:20;;;;;;;27.80;16.67;;;;;;;;;;5026839;28;20099;-78
2022/10/28 06:38:46;;;;;;;26.13;16.63;;;;;;;;;;5031972;28;20053;-78
2022/10/28 06:41:12;;;;;;;27.55;16.83;;;;;;;;;;5031496;28;20560;-77
2022/10/28 06:43:38;;;;;;;29.23;16.88;;;;;;;;;;5033150;28;20095;-78
2022/10/28 06:46:04;;;;;;;28.85;17.05;;;;;;;;;;5033282;28;20077;-77
2022/10/28 06:48:31;;;;;;;30.70;16.35;;;;;;;;;;5033044;28;20042;-78
2022/10/28 06:50:57;;;;;;;27.40;15.93;;;;;;;;;;5035946;28;20083;-78
2022/10/28 06:53:23;;;;;;;27.92;16.20;;;;;;;;;;5036854;28;20508;-78
2022/10/28 06:55:53;;;;;;;29.17;16.02;;;;;;;;;;5038208;28;20092;-79
2022/10/28 06:58:19;;;;;;;22.80;14.50;;;;;;;;;;5039177;28;20120;-77
2022/10/28 07:00:45;;;;;;;22.95;14.52;;;;;;;;;;5037490;28;20481;-82
2022/10/28 07:03:11;;;;;;;24.08;14.35;;;;;;;;;;5035861;28;20124;-77
2022/10/28 07:05:37;;;;;;;30.65;15.27;;;;;;;;;;5033611;28;20041;-77
2022/10/28 07:08:04;;;;;;;20.75;14.80;;;;;;;;;;5033396;28;20129;-78
2022/10/28 07:10:30;;;;;;;24.80;14.98;;;;;;;;;;5030829;28;20133;-78
2022/10/28 07:12:56;;;;;;;25.35;13.68;;;;;;;;;;5026667;28;20053;-78
2022/10/28 07:15:22;;;;;;;22.15;13.57;;;;;;;;;;5037391;28;20033;-77
2022/10/28 07:17:52;;;;;;;22.60;13.05;;;;;;;;;;5029191;28;20045;-77
2022/10/28 07:20:18;;;;;;;20.65;13.60;;;;;;;;;;5036673;28;20055;-78
2022/10/28 07:22:44;;;;;;;22.58;12.90;;;;;;;;;;5036631;28;20053;-77
2022/10/28 07:25:10;;;;;;;18.83;12.40;;;;;;;;;;5036597;28;20103;-78
2022/10/28 07:27:36;;;;;;;20.77;13.40;;;;;;;;;;5036553;28;20045;-78
2022/10/28 07:30:02;;;;;;;19.65;12.85;;;;;;;;;;5036574;28;20096;-78
2022/10/28 07:32:32;;;;;;;19.10;11.68;;;;;;;;;;5037345;28;20045;-78
2022/10/28 07:34:58;;;;;;;15.57;10.32;;;;;;;;;;5037423;28;20504;-80
2022/10/28 07:37:24;;;;;;;19.73;11.63;;;;;;;;;;5036514;28;20093;-79
2022/10/28 07:39:50;;;;;;;24.52;12.40;;;;;;;;;;5016558;28;20505;-79
2022/10/28 07:42:16;;;;;;;17.40;11.07;;;;;;;;;;5016511;28;20042;-79
2022/10/28 07:44:42;;;;;;;19.75;10.65;;;;;;;;;;5016461;28;20042;-79
2022/10/28 07:47:08;;;;;;;24.38;11.68;;;;;;;;;;5034053;28;20079;-77
2022/10/28 07:49:34;;;;;;;18.40;10.60;;;;;;;;;;5036133;28;20409;-77
2022/10/28 07:52:00;;;;;;;18.17;10.70;;;;;;;;;;5036120;28;20045;-76
2022/10/28 07:54:27;;;;;;;21.27;11.45;;;;;;;;;;5036517;28;20046;-77
2022/10/28 07:56:53;;;;;;;18.17;10.32;;;;;;;;;;5035968;28;20509;-77
2022/10/28 07:59:19;;;;;;;20.63;9.70;;;;;;;;;;5035922;28;20046;-77
2022/10/28 08:01:46;;;;;;;17.30;10.35;;;;;;;;;;5016791;28;20042;-77
2022/10/28 08:04:12;;;;;;;17.17;9.73;;;;;;;;;;5029245;28;20095;-77
2022/10/28 08:06:38;;;;;;;16.60;10.60;;;;;;;;;;5035917;28;20049;-76
2022/10/28 08:09:04;;;;;;;17.08;10.40;;;;;;;;;;5034544;28;20081;-77
2022/10/28 08:11:30;;;;;;;16.58;10.48;;;;;;;;;;5035618;28;20099;-77
2022/10/28 08:13:56;;;;;;;18.67;9.98;;;;;;;;;;5035566;28;20042;-77
2022/10/28 08:16:22;;;;;;;20.50;10.05;;;;;;;;;;5035707;28;20052;-76
2022/10/28 08:18:48;;;;;;;17.80;10.15;;;;;;;;;;5036043;28;20478;-77
2022/10/28 08:21:15;;;;;;;14.00;9.45;;;;;;;;;;5038581;28;20045;-77
2022/10/28 08:23:45;;;;;;;15.40;9.70;;;;;;;;;;5038765;28;20046;-77
2022/10/28 08:26:11;;;;;;;14.35;8.68;;;;;;;;;;5036968;28;20073;-76
2022/10/28 08:28:37;;;;;;;17.58;9.30;;;;;;;;;;5052090;28;20042;-76
2022/10/28 08:31:07;;;;;;;14.48;8.85;;;;;;;;;;5034939;28;20053;-77
2022/10/28 08:33:33;;;;;;;16.00;9.30;;;;;;;;;;5035480;28;20049;-78
2022/10/28 08:35:59;;;;;;;15.02;8.65;;;;;;;;;;5034183;28;20045;-78
2022/10/28 08:38:26;;;;;;;14.80;9.07;;;;;;;;;;5035713;28;20127;-77
2022/10/28 08:41:05;;;;;;;17.30;9.25;;;;;;;;;;5035925;28;20045;-77
2022/10/28 08:43:39;;;;;;;14.60;8.82;;;;;;;;;;5036008;28;20128;-76
2022/10/28 08:46:15;;;;;;;21.17;9.13;;;;;;;;;;5035501;28;20037;-77
2022/10/28 08:48:41;;;;;;;20.38;8.90;;;;;;;;;;5035088;28;20041;-77
2022/10/28 08:51:12;;;;;;;17.38;8.23;;;;;;;;;;5035402;28;20115;-82
2022/10/28 08:53:46;;;;;;;16.80;9.15;;;;;;;;;;5036423;28;20045;-78
2022/10/28 08:56:15;;;;;;;15.13;8.40;;;;;;;;;;5034937;28;20061;-78
2022/10/28 08:58:42;;;;;;;16.17;8.38;;;;;;;;;;5035516;28;20048;-78
2022/10/28 09:01:13;;;;;;;15.55;8.55;;;;;;;;;;5034907;28;20045;-78
2022/10/28 09:03:41;;;;;;;14.63;9.05;;;;;;;;;;5034790;28;20076;-79
2022/10/28 09:06:08;;;;;;;15.38;8.75;;;;;;;;;;5015165;28;20046;-79
2022/10/28 09:08:36;;;;;;;16.55;8.55;;;;;;;;;;5019860;28;20049;-79
2022/10/28 09:11:20;;;;;;;19.63;9.00;;;;;;;;;;5016118;28;20393;-80
2022/10/28 09:13:53;;;;;;;15.35;8.02;;;;;;;;;;5014879;28;20137;-76
2022/10/28 09:16:40;;;;;;;16.40;8.52;;;;;;;;;;5032375;28;20095;-76
2022/10/28 09:19:30;;;;;;;14.18;8.55;;;;;;;;;;5021065;28;20099;-75
2022/10/28 09:22:05;;;;;;;14.00;8.25;;;;;;;;;;5034122;28;20111;-81
2022/10/28 09:24:51;;;;;;;14.38;8.43;;;;;;;;;;5034108;28;20049;-76
2022/10/28 09:27:23;;;;;;;14.67;8.17;;;;;;;;;;5035109;28;20041;-77
2022/10/28 09:29:58;;;;;;;15.82;8.15;;;;;;;;;;5036168;28;20049;-76
2022/10/28 09:32:40;;;;;;;14.98;8.30;;;;;;;;;;5031357;28;20054;-77
2022/10/28 09:35:09;;;;;;;15.35;7.85;;;;;;;;;;5047410;28;20076;-78
2022/10/28 09:37:38;;;;;;;13.40;8.25;;;;;;;;;;5019305;28;20045;-77
2022/10/28 09:40:13;;;;;;;14.00;7.90;;;;;;;;;;5033855;28;20396;-82
2022/10/28 09:42:42;;;;;;;17.10;7.90;;;;;;;;;;5034769;28;20068;-77
2022/10/28 09:45:13;;;;;;;15.88;8.50;;;;;;;;;;5035203;28;20099;-78
2022/10/28 09:47:49;;;;;;;16.17;8.48;;;;;;;;;;5033875;28;20041;-78
2022/10/28 09:50:20;;;;;;;13.48;8.13;;;;;;;;;;5034117;28;20496;-78
2022/10/28 09:52:56;;;;;;;14.30;7.95;;;;;;;;;;5034362;28;20072;-78
2022/10/28 09:55:23;;;;;;;16.05;8.60;;;;;;;;;;5036677;28;20045;-80
2022/10/28 09:57:49;;;;;;;14.93;7.90;;;;;;;;;;5034129;28;20552;-80
2022/10/28 10:00:16;;;;;;;12.90;7.82;;;;;;;;;;5034196;28;20081;-79
2022/10/28 10:02:43;;;;;;;17.55;8.20;;;;;;;;;;5029817;28;20045;-79
2022/10/28 10:05:13;;;;;;;18.98;8.73;;;;;;;;;;5033909;28;20045;-79
2022/10/28 10:07:41;;;;;;;15.07;8.15;;;;;;;;;;5033748;28;20409;-79
2022/10/28 10:10:13;;;;;;;15.55;8.13;;;;;;;;;;5020348;28;20089;-79
2022/10/28 10:12:40;;;;;;;15.32;8.52;;;;;;;;;;5044330;28;20157;-81
2022/10/28 10:15:11;;;;;;;17.60;8.75;;;;;;;;;;5036379;28;20048;-78
2022/10/28 10:17:40;;;;;;;13.00;7.38;;;;;;;;;;5034209;28;20382;-78
2022/10/28 10:20:07;;;;;;;16.80;8.13;;;;;;;;;;5033739;28;20052;-77
2022/10/28 10:22:35;;;;;;;13.25;7.78;;;;;;;;;;5034602;28;20461;-78
2022/10/28 10:25:02;;;;;;;13.35;7.55;;;;;;;;;;5033185;28;20492;-82
2022/10/28 10:27:29;;;;;;;16.48;8.25;;;;;;;;;;5034362;28;20072;-77
2022/10/28 10:29:56;;;;;;;19.10;8.57;;;;;;;;;;5033712;28;20041;-77
2022/10/28 10:32:25;;;;;;;13.80;7.35;;;;;;;;;;5033792;28;20045;-77
2022/10/28 10:35:08;;;;;;;17.38;8.43;;;;;;;;;;5033717;28;20050;-78
2022/10/28 10:37:34;;;;;;;23.80;8.02;;;;;;;;;;5032105;28;20037;-77
2022/10/28 10:40:29;;;;;;;16.85;8.00;;;;;;;;;;5033377;28;20535;-77
2022/10/28 10:42:56;;;;;;;16.90;7.88;;;;;;;;;;5016319;28;20133;-77
2022/10/28 10:45:24;;;;;;;13.18;7.32;;;;;;;;;;5013271;28;20081;-79
2022/10/28 10:48:05;;;;;;;16.13;7.78;;;;;;;;;;5022244;28;20065;-79
2022/10/28 10:50:32;;;;;;;12.88;7.28;;;;;;;;;;5033122;28;20045;-79
2022/10/28 10:52:59;;;;;;;16.48;7.45;;;;;;;;;;5033012;28;20072;-79
2022/10/28 10:55:28;;;;;;;14.60;7.88;;;;;;;;;;5031786;28;20049;-79
2022/10/28 10:57:55;;;;;;;12.98;7.82;;;;;;;;;;5032835;28;20172;-79
2022/10/28 11:00:30;;;;;;;12.02;7.75;;;;;;;;;;5033143;28;20091;-79
2022/10/28 11:02:56;;;;;;;15.43;8.13;;;;;;;;;;5033072;28;20045;-79
2022/10/28 11:05:23;;;;;;;14.70;7.95;;;;;;;;;;5033008;28;20072;-79
2022/10/28 11:07:50;;;;;;;14.98;7.40;;;;;;;;;;5016920;28;20068;-79
2022/10/28 11:10:30;;;;;;;13.23;7.30;;;;;;;;;;5013379;28;20192;-79
2022/10/28 11:12:57;;;;;;;11.90;7.45;;;;;;;;;;5031699;28;20057;-79
2022/10/28 11:15:27;;;;;;;16.17;7.40;;;;;;;;;;5032799;28;20045;-79
2022/10/28 11:17:56;;;;;;;13.68;7.50;;;;;;;;;;5032782;28;20396;-79
2022/10/28 11:20:29;;;;;;;15.48;7.88;;;;;;;;;;5032899;28;20045;-79
2022/10/28 11:23:05;;;;;;;13.43;7.50;;;;;;;;;;5032242;28;20057;-79
2022/10/28 11:25:39;;;;;;;10.63;7.05;;;;;;;;;;5032474;28;20424;-78
2022/10/28 11:28:18;;;;;;;15.68;7.82;;;;;;;;;;5032545;28;20509;-79
2022/10/28 11:30:53;;;;;;;17.67;7.65;;;;;;;;;;5032766;28;20052;-79
2022/10/28 11:33:31;;;;;;;17.08;7.30;;;;;;;;;;5032830;28;20476;-79
2022/10/28 11:36:11;;;;;;;14.73;7.15;;;;;;;;;;5033475;28;20382;-79
2022/10/28 11:38:46;;;;;;;18.85;7.40;;;;;;;;;;5036347;28;20140;-79
2022/10/28 11:41:18;;;;;;;13.55;7.63;;;;;;;;;;5036303;28;20045;-79
2022/10/28 11:43:50;;;;;;;14.50;6.95;;;;;;;;;;5035911;28;20060;-79
2022/10/28 11:46:22;;;;;;;11.80;6.65;;;;;;;;;;5035772;28;20488;-79
2022/10/28 11:48:48;;;;;;;17.20;7.55;;;;;;;;;;5036323;28;20044;-79
2022/10/28 11:51:14;;;;;;;15.20;6.68;;;;;;;;;;5037830;28;20041;-79
2022/10/28 11:53:43;;;;;;;12.63;6.57;;;;;;;;;;5039380;28;20038;-79
2022/10/28 11:56:15;;;;;;;13.13;6.50;;;;;;;;;;5037979;28;20077;-79
2022/10/28 11:59:00;;;;;;;14.80;6.43;;;;;;;;;;5036054;28;20048;-79
2022/10/28 12:01:29;;;;;;;15.70;6.40;;;;;;;;;;5035986;28;20059;-79
2022/10/28 12:04:07;;;;;;;14.10;6.60;;;;;;;;;;5035882;28;20069;-79
2022/10/28 12:06:53;;;;;;;19.90;7.03;;;;;;;;;;5034572;28;20049;-79
2022/10/28 12:09:39;;;;;;;17.73;7.30;;;;;;;;;;5035587;28;20053;-79
2022/10/28 12:12:05;;;;;;;;;;;;;;;;;;5035226;28;20068;-80
2022/10/28 12:14:50;;;;;;;16.30;6.70;;;;;;;;;;5036463;28;19921;-79
2022/10/28 12:17:19;;;;;;;18.88;7.65;;;;;;;;;;5035570;28;20076;-79
2022/10/28 12:19:54;;;;;;;13.20;6.32;;;;;;;;;;5035656;28;20124;-79
2022/10/28 12:22:23;;;;;;;11.27;6.43;;;;;;;;;;5035642;28;20037;-79
2022/10/28 12:24:50;;;;;;;23.45;7.43;;;;;;;;;;5035199;28;20475;-79
2022/10/28 12:27:20;;;;;;;13.45;6.40;;;;;;;;;;5035454;28;20045;-79
2022/10/28 12:29:48;;;;;;;14.30;7.45;;;;;;;;;;5035616;28;20045;-79
2022/10/28 12:32:23;;;;;;;10.52;6.40;;;;;;;;;;5034910;28;20392;-79
2022/10/28 12:34:58;;;;;;;12.95;7.55;;;;;;;;;;5035346;28;20124;-79
2022/10/28 12:37:27;;;;;;;13.18;6.82;;;;;;;;;;5035821;28;20121;-79
2022/10/28 12:40:12;;;;;;;17.05;7.40;;;;;;;;;;5036391;28;20050;-78
2022/10/28 12:43:04;;;;;;;16.10;6.93;;;;;;;;;;5029872;28;20045;-78
2022/10/28 12:45:31;;;;;;;15.88;7.28;;;;;;;;;;5035110;28;20080;-78
2022/10/28 12:47:59;;;;;;;13.70;6.97;;;;;;;;;;5034518;28;20073;-77
2022/10/28 12:50:28;;;;;;;12.43;6.93;;;;;;;;;;5035435;28;20037;-77
2022/10/28 12:53:03;;;;;;;14.18;7.15;;;;;;;;;;5030406;28;20433;-77
2022/10/28 12:55:43;;;;;;;13.65;6.70;;;;;;;;;;5015746;28;20429;-81
2022/10/28 12:58:09;;;;;;;14.45;7.32;;;;;;;;;;5015137;28;20104;-78
2022/10/28 13:00:37;;;;;;;13.80;7.38;;;;;;;;;;5014665;28;20046;-79
2022/10/28 13:03:07;;;;;;;16.08;7.78;;;;;;;;;;5022889;28;20046;-78
2022/10/28 13:05:45;;;;;;;12.18;6.50;;;;;;;;;;5035400;28;20057;-79
2022/10/28 13:08:24;;;;;;;16.50;7.15;;;;;;;;;;5034665;28;20117;-79
2022/10/28 13:10:50;;;;;;;14.75;7.95;;;;;;;;;;5034708;28;20057;-79
2022/10/28 13:13:22;;;;;;;14.52;7.07;;;;;;;;;;5034369;28;20119;-79
2022/10/28 13:16:06;;;;;;;16.10;8.10;;;;;;;;;;5034061;28;20515;-79
2022/10/28 13:18:45;;;;;;;14.00;7.55;;;;;;;;;;5034540;28;20037;-79
2022/10/28 13:21:14;;;;;;;13.48;7.13;;;;;;;;;;5034006;28;20041;-79
2022/10/28 13:23:47;;;;;;;17.13;7.65;;;;;;;;;;5034390;28;20040;-79
2022/10/28 13:26:28;;;;;;;16.25;7.30;;;;;;;;;;5034389;28;20126;-79
2022/10/28 13:28:55;;;;;;;12.25;6.88;;;;;;;;;;5033827;28;20523;-79
2022/10/28 13:31:22;;;;;;;12.60;6.55;;;;;;;;;;5028593;28;20037;-79
2022/10/28 13:33:54;;;;;;;18.05;8.63;;;;;;;;;;5024837;28;20128;-78
2022/10/28 13:36:24;;;;;;;18.50;7.18;;;;;;;;;;5034451;28;20048;-78
2022/10/28 13:38:52;;;;;;;14.27;7.45;;;;;;;;;;5035013;28;20129;-79
2022/10/28 13:41:33;;;;;;;13.82;7.30;;;;;;;;;;5016819;28;20497;-78
2022/10/28 13:43:59;;;;;;;16.20;7.97;;;;;;;;;;5014808;28;20042;-80
2022/10/28 13:46:44;;;;;;;17.27;6.68;;;;;;;;;;5014629;28;20077;-78
2022/10/28 13:49:22;;;;;;;17.23;7.35;;;;;;;;;;5014202;28;20038;-79
2022/10/28 13:51:50;;;;;;;14.73;6.93;;;;;;;;;;5014417;28;20556;-78
2022/10/28 13:54:45;;;;;;;16.27;6.97;;;;;;;;;;5049635;28;20441;-80
2022/10/28 13:57:11;;;;;;;14.02;7.05;;;;;;;;;;5027576;28;20172;-80
2022/10/28 13:59:49;;;;;;;15.07;7.60;;;;;;;;;;5032924;28;20041;-79
2022/10/28 14:02:17;;;;;;;16.60;7.20;;;;;;;;;;5034610;28;20067;-80
2022/10/28 14:04:53;;;;;;;16.55;7.60;;;;;;;;;;5033268;28;20045;-80
2022/10/28 14:07:20;;;;;;;;;;;;;;;;;;5034165;28;20068;-80
2022/10/28 14:09:47;;;;;;;12.60;6.72;;;;;;;;;;5033152;28;20377;-80
2022/10/28 14:12:25;;;;;;;13.18;6.95;;;;;;;;;;5033648;28;20049;-80
2022/10/28 14:14:54;;;;;;;15.45;7.25;;;;;;;;;;5033438;28;20049;-80
2022/10/28 14:17:22;;;;;;;11.77;7.20;;;;;;;;;;5033640;28;20396;-80
2022/10/28 14:19:52;;;;;;;16.88;7.45;;;;;;;;;;5032083;28;20048;-80
2022/10/28 14:22:29;;;;;;;15.57;7.78;;;;;;;;;;5033316;28;20136;-80
2022/10/28 14:24:55;;;;;;;19.75;7.68;;;;;;;;;;5033936;28;20071;-80
2022/10/28 14:27:51;;;;;;;14.52;7.22;;;;;;;;;;5034203;28;20088;-81
2022/10/28 14:30:19;;;;;;;18.05;7.90;;;;;;;;;;5024974;28;20059;-80
2022/10/28 14:32:48;;;;;;;13.60;7.43;;;;;;;;;;5034338;28;20053;-80
2022/10/28 14:35:14;;;;;;;13.65;7.78;;;;;;;;;;5029768;28;20400;-80
2022/10/28 14:37:55;;;;;;;17.75;7.18;;;;;;;;;;5028175;28;20548;-81